createdAt,value
2023-04-09T00:01:34.341Z,31.85
2023-04-09T00:04:00.936Z,33.50
2023-04-09T00:06:27.550Z,35.35
2023-04-09T00:08:54.052Z,34.05
2023-04-09T00:11:21.540Z,36.53
2023-04-09T00:13:47.974Z,35.72
2023-04-09T00:16:14.811Z,36.97
2023-04-09T00:18:41.655Z,38.67
2023-04-09T00:21:08.737Z,38.85
2023-04-09T00:23:35.951Z,37.63
2023-04-09T00:26:02.490Z,37.33
2023-04-09T00:28:28.845Z,38.20
2023-04-09T00:30:55.315Z,36.67
2023-04-09T00:33:21.657Z,37.65
2023-04-09T00:35:48.101Z,37.08
2023-04-09T00:38:14.556Z,35.70
2023-04-09T00:40:40.974Z,36.42
2023-04-09T00:43:07.366Z,36.03
2023-04-09T00:45:34.095Z,36.47
2023-04-09T00:48:00.850Z,36.35
2023-04-09T00:50:27.375Z,35.88
2023-04-09T00:52:53.850Z,33.65
2023-04-09T00:55:21.415Z,36.40
2023-04-09T00:57:47.805Z,35.08
2023-04-09T01:00:14.598Z,33.17
2023-04-09T01:02:41.436Z,34.38
2023-04-09T01:05:08.687Z,34.13
2023-04-09T01:07:42.602Z,33.85
2023-04-09T01:10:18.140Z,33.08
2023-04-09T01:13:18.323Z,32.58
2023-04-09T01:16:00.374Z,32.80
2023-04-09T01:18:40.579Z,32.55
2023-04-09T01:21:12.061Z,34.78
2023-04-09T01:24:19.757Z,33.65
2023-04-09T01:27:04.843Z,31.35
2023-04-09T01:29:38.266Z,33.25
2023-04-09T01:32:07.121Z,34.22
2023-04-09T01:34:34.823Z,32.95
2023-04-09T01:37:03.412Z,34.05
2023-04-09T01:39:30.554Z,35.00
2023-04-09T01:41:57.939Z,35.60
2023-04-09T01:44:26.141Z,34.08
2023-04-09T01:46:54.309Z,32.95
2023-04-09T01:49:21.980Z,34.13
2023-04-09T01:51:48.485Z,32.75
2023-04-09T01:54:16.312Z,33.70
2023-04-09T01:56:45.217Z,33.33
2023-04-09T01:59:12.056Z,31.30
2023-04-09T02:01:46.904Z,31.88
2023-04-09T02:04:23.365Z,33.00
2023-04-09T02:07:10.135Z,33.35
2023-04-09T02:09:40.332Z,33.25
2023-04-09T02:12:12.480Z,35.95
2023-04-09T02:14:40.215Z,38.75
2023-04-09T02:17:06.644Z,38.25
2023-04-09T02:19:46.949Z,38.72
2023-04-09T02:22:14.323Z,38.85
2023-04-09T02:24:41.321Z,38.38
2023-04-09T02:27:08.549Z,38.90
2023-04-09T02:29:35.009Z,36.53
2023-04-09T02:32:01.530Z,38.90
2023-04-09T02:34:28.224Z,38.53
2023-04-09T02:36:54.604Z,39.50
2023-04-09T02:39:20.934Z,36.97
2023-04-09T02:41:47.370Z,37.72
2023-04-09T02:44:13.754Z,34.75
2023-04-09T02:46:41.460Z,34.55
2023-04-09T02:49:08.070Z,33.22
2023-04-09T02:51:35.819Z,33.97
2023-04-09T02:54:03.417Z,37.55
2023-04-09T02:56:29.817Z,35.67
2023-04-09T02:58:56.225Z,36.63
2023-04-09T03:01:22.712Z,30.55
2023-04-09T03:03:49.239Z,33.30
2023-04-09T03:06:15.863Z,30.67
2023-04-09T03:08:42.178Z,33.38
2023-04-09T03:11:08.532Z,31.23
2023-04-09T03:13:34.964Z,30.88
2023-04-09T03:16:01.423Z,32.80
2023-04-09T03:18:27.798Z,32.30
2023-04-09T03:20:54.172Z,32.42
2023-04-09T03:23:20.564Z,30.67
2023-04-09T03:25:46.993Z,30.42
2023-04-09T03:28:13.316Z,29.20
2023-04-09T03:30:39.678Z,30.27
2023-04-09T03:33:06.042Z,28.00
2023-04-09T03:35:32.532Z,28.35
2023-04-09T03:37:58.895Z,28.75
2023-04-09T03:40:25.496Z,29.70
2023-04-09T03:42:51.896Z,29.75
2023-04-09T03:45:18.238Z,31.15
2023-04-09T03:47:44.700Z,32.33
2023-04-09T03:50:11.319Z,33.42
2023-04-09T03:52:37.657Z,32.83
2023-04-09T03:55:04.947Z,32.90
2023-04-09T03:57:31.289Z,33.60
2023-04-09T03:59:57.637Z,33.80
2023-04-09T04:02:26.805Z,32.90
2023-04-09T04:04:53.489Z,32.47
2023-04-09T04:07:19.808Z,32.47
2023-04-09T04:09:46.218Z,34.00
2023-04-09T04:12:12.631Z,34.03
2023-04-09T04:14:38.948Z,34.47
2023-04-09T04:17:05.629Z,34.47
2023-04-09T04:19:32.018Z,33.47
2023-04-09T04:21:58.362Z,34.67
2023-04-09T04:24:24.750Z,34.90
2023-04-09T04:26:51.136Z,36.33
2023-04-09T04:29:17.897Z,34.65
2023-04-09T04:31:44.254Z,35.97
2023-04-09T04:34:10.638Z,35.13
2023-04-09T04:36:37.766Z,37.38
2023-04-09T04:39:04.149Z,37.63
2023-04-09T04:41:30.651Z,37.03
2023-04-09T04:43:57.246Z,37.45
2023-04-09T04:46:23.647Z,37.38
2023-04-09T04:48:50.257Z,36.20
2023-04-09T04:51:16.827Z,38.58
2023-04-09T04:53:43.182Z,36.97
2023-04-09T04:56:16.068Z,37.17
2023-04-09T04:58:42.855Z,34.88
2023-04-09T05:01:09.306Z,35.30
2023-04-09T05:03:35.998Z,33.05
2023-04-09T05:06:02.919Z,35.05
2023-04-09T05:08:29.396Z,34.33
2023-04-09T05:10:56.302Z,32.92
2023-04-09T05:13:23.717Z,34.33
2023-04-09T05:15:50.086Z,32.63
2023-04-09T05:18:16.473Z,31.45
2023-04-09T05:20:42.899Z,30.60
2023-04-09T05:23:12.473Z,31.60
2023-04-09T05:25:39.370Z,31.17
2023-04-09T05:28:06.197Z,32.00
2023-04-09T05:30:32.567Z,35.13
2023-04-09T05:32:59.064Z,35.30
2023-04-09T05:35:25.444Z,33.22
2023-04-09T05:37:51.807Z,35.03
2023-04-09T05:40:18.208Z,35.33
2023-04-09T05:42:44.581Z,35.75
2023-04-09T05:45:11.211Z,35.60
2023-04-09T05:47:37.579Z,35.42
2023-04-09T05:50:04.482Z,38.00
2023-04-09T05:52:30.829Z,36.95
2023-04-09T05:54:57.144Z,38.63
2023-04-09T05:57:23.488Z,39.30
2023-04-09T05:59:49.849Z,41.10
2023-04-09T06:02:16.412Z,40.13
2023-04-09T06:04:42.915Z,41.58
2023-04-09T06:07:09.298Z,43.80
2023-04-09T06:09:35.878Z,43.13
2023-04-09T06:12:02.479Z,46.40
2023-04-09T06:14:28.803Z,45.65
2023-04-09T06:16:55.219Z,46.75
2023-04-09T06:19:22.124Z,49.03
2023-04-09T06:21:48.544Z,47.08
2023-04-09T06:24:14.985Z,44.10
2023-04-09T06:26:41.440Z,44.60
2023-04-09T06:29:07.818Z,46.65
2023-04-09T06:31:34.599Z,46.67
2023-04-09T06:34:01.101Z,47.13
2023-04-09T06:36:27.866Z,46.15
2023-04-09T06:38:54.422Z,48.42
2023-04-09T06:41:22.209Z,49.55
2023-04-09T06:43:49.080Z,49.33
2023-04-09T06:46:17.771Z,49.00
2023-04-09T06:48:44.675Z,52.10
2023-04-09T06:51:11.236Z,47.30
2023-04-09T06:53:38.909Z,47.15
2023-04-09T06:56:06.176Z,47.65
2023-04-09T06:58:32.704Z,47.70
2023-04-09T07:01:00.023Z,48.03
2023-04-09T07:03:27.931Z,50.08
2023-04-09T07:05:54.952Z,49.88
2023-04-09T07:08:22.870Z,49.03
2023-04-09T07:10:49.436Z,49.47
2023-04-09T07:13:16.103Z,49.25
2023-04-09T07:15:42.668Z,50.38
2023-04-09T07:18:09.456Z,51.58
2023-04-09T07:20:36.119Z,51.58
2023-04-09T07:23:02.629Z,53.88
2023-04-09T07:25:29.081Z,55.55
2023-04-09T07:27:55.737Z,50.83
2023-04-09T07:30:22.080Z,51.70
2023-04-09T07:32:48.583Z,49.78
2023-04-09T07:35:15.360Z,47.53
2023-04-09T07:37:41.761Z,42.03
2023-04-09T07:40:08.814Z,36.53
2023-04-09T07:42:37.935Z,30.52
2023-04-09T07:45:04.882Z,29.50
2023-04-09T07:47:31.826Z,27.92
2023-04-09T07:49:58.401Z,28.30
2023-04-09T07:52:24.785Z,27.80
2023-04-09T07:54:51.132Z,31.55
2023-04-09T07:57:17.601Z,29.70
2023-04-09T07:59:43.959Z,29.15
2023-04-09T08:02:13.401Z,30.63
2023-04-09T08:04:41.551Z,29.55
2023-04-09T08:07:08.204Z,29.85
2023-04-09T08:09:34.528Z,29.95
2023-04-09T08:12:01.172Z,27.92
2023-04-09T08:14:27.585Z,24.77
2023-04-09T08:16:54.085Z,22.45
2023-04-09T08:19:20.650Z,21.45
2023-04-09T08:21:48.774Z,25.55
2023-04-09T08:24:15.620Z,24.55
2023-04-09T08:26:43.313Z,24.67
2023-04-09T08:29:12.127Z,23.77
2023-04-09T08:31:38.620Z,23.17
2023-04-09T08:34:06.279Z,23.55
2023-04-09T08:36:34.565Z,22.35
2023-04-09T08:39:01.879Z,23.15
2023-04-09T08:41:29.313Z,22.88
2023-04-09T08:43:58.876Z,24.92
2023-04-09T08:46:26.361Z,21.08
2023-04-09T08:48:53.263Z,22.05
2023-04-09T08:51:22.200Z,19.00
2023-04-09T08:53:53.350Z,18.88
2023-04-09T08:56:21.483Z,18.15
2023-04-09T08:58:48.133Z,17.80
2023-04-09T09:01:27.231Z,17.17
2023-04-09T09:03:56.229Z,17.25
2023-04-09T09:06:24.737Z,17.23
2023-04-09T09:09:06.782Z,17.38
2023-04-09T09:11:37.754Z,16.67
2023-04-09T09:14:06.585Z,16.98
2023-04-09T09:16:42.607Z,16.55
2023-04-09T09:19:10.587Z,17.30
2023-04-09T09:21:36.978Z,16.73
2023-04-09T09:24:16.887Z,17.95
2023-04-09T09:26:43.738Z,15.05
2023-04-09T09:29:10.551Z,15.70
2023-04-09T09:31:49.131Z,16.67
2023-04-09T09:34:19.393Z,16.30
2023-04-09T09:36:47.285Z,14.52
2023-04-09T09:39:17.159Z,13.70
2023-04-09T09:41:45.298Z,15.13
2023-04-09T09:44:13.002Z,14.50
2023-04-09T09:46:42.371Z,14.35
2023-04-09T09:49:09.526Z,13.20
2023-04-09T09:51:39.168Z,13.05
2023-04-09T09:54:07.627Z,14.13
2023-04-09T09:56:39.430Z,12.88
2023-04-09T09:59:23.304Z,10.80
2023-04-09T10:02:19.496Z,11.63
2023-04-09T10:04:49.003Z,10.23
2023-04-09T10:07:16.130Z,11.10
2023-04-09T10:09:48.720Z,11.25
2023-04-09T10:12:16.420Z,10.35
2023-04-09T10:14:43.517Z,9.63
2023-04-09T10:17:10.413Z,8.73
2023-04-09T10:19:47.167Z,8.05
2023-04-09T10:22:21.454Z,8.35
2023-04-09T10:27:17.350Z,7.55
2023-04-09T10:29:46.056Z,7.70
2023-04-09T10:32:13.444Z,7.68
2023-04-09T10:34:42.395Z,8.23
2023-04-09T10:37:10.254Z,7.38
2023-04-09T10:39:43.661Z,8.38
2023-04-09T10:42:43.181Z,8.33
2023-04-09T10:45:11.803Z,7.57
2023-04-09T10:47:40.037Z,7.30
2023-04-09T10:50:17.099Z,6.55
2023-04-09T10:52:44.304Z,7.22
2023-04-09T10:55:30.518Z,7.43
2023-04-09T10:57:58.245Z,8.80
2023-04-09T11:00:24.749Z,8.25
2023-04-09T11:03:05.718Z,8.00
2023-04-09T11:05:39.640Z,8.88
2023-04-09T11:08:11.519Z,8.27
2023-04-09T11:10:41.965Z,7.70
2023-04-09T11:13:13.167Z,8.25
2023-04-09T11:15:39.643Z,7.10
2023-04-09T11:18:14.001Z,6.90
2023-04-09T11:20:40.791Z,7.47
2023-04-09T11:23:07.426Z,8.13
2023-04-09T11:25:35.003Z,8.02
2023-04-09T11:28:04.683Z,8.27
2023-04-09T11:30:31.296Z,8.48
2023-04-09T11:32:57.780Z,9.60
2023-04-09T11:35:24.843Z,9.68
2023-04-09T11:37:52.331Z,8.93
2023-04-09T11:40:24.009Z,8.70
2023-04-09T11:42:52.369Z,10.20
2023-04-09T11:45:21.253Z,11.02
2023-04-09T11:47:48.881Z,8.50
2023-04-09T11:50:16.441Z,9.93
2023-04-09T11:52:44.593Z,8.50
2023-04-09T11:55:11.957Z,9.65
2023-04-09T11:57:46.910Z,9.98
2023-04-09T12:00:15.441Z,10.45
2023-04-09T12:02:44.484Z,10.10
2023-04-09T12:05:32.123Z,9.68
2023-04-09T12:08:07.948Z,8.10
2023-04-09T12:10:36.815Z,8.15
2023-04-09T12:13:06.099Z,9.60
2023-04-09T12:15:37.364Z,8.45
2023-04-09T12:18:04.231Z,11.10
2023-04-09T12:20:35.551Z,9.90
2023-04-09T12:23:03.743Z,10.57
2023-04-09T12:25:31.672Z,9.52
2023-04-09T12:27:58.625Z,9.45
2023-04-09T12:30:25.350Z,9.55
2023-04-09T12:32:52.794Z,9.10
2023-04-09T12:35:19.312Z,8.98
2023-04-09T12:37:45.939Z,8.10
2023-04-09T12:40:15.039Z,8.93
2023-04-09T12:42:42.610Z,9.43
2023-04-09T12:45:10.370Z,8.75
2023-04-09T12:47:37.628Z,8.10
2023-04-09T12:50:04.867Z,8.43
2023-04-09T12:52:31.409Z,8.13
2023-04-09T12:54:57.828Z,9.40
2023-04-09T12:57:24.414Z,9.32
2023-04-09T12:59:50.897Z,8.88
2023-04-09T13:02:18.718Z,8.93
2023-04-09T13:04:45.314Z,8.80
2023-04-09T13:07:12.845Z,8.60
2023-04-09T13:09:39.252Z,8.65
2023-04-09T13:12:05.973Z,8.30
2023-04-09T13:14:32.602Z,6.35
2023-04-09T13:16:59.142Z,6.95
2023-04-09T13:19:25.952Z,6.40
2023-04-09T13:21:52.301Z,7.85
2023-04-09T13:24:18.698Z,6.45
2023-04-09T13:26:45.393Z,6.45
2023-04-09T13:29:12.063Z,7.68
2023-04-09T13:31:38.429Z,7.40
2023-04-09T13:34:06.337Z,6.63
2023-04-09T13:36:32.666Z,6.90
2023-04-09T13:39:04.299Z,7.63
2023-04-09T13:41:32.836Z,6.63
2023-04-09T13:44:00.752Z,7.53
2023-04-09T13:46:27.875Z,7.63
2023-04-09T13:48:54.961Z,7.38
2023-04-09T13:51:22.488Z,8.07
2023-04-09T13:53:49.625Z,7.50
2023-04-09T13:56:16.690Z,7.53
2023-04-09T13:58:43.685Z,8.07
2023-04-09T14:01:11.228Z,8.07
2023-04-09T14:03:40.087Z,8.60
2023-04-09T14:06:08.415Z,7.93
2023-04-09T14:08:35.592Z,7.63
2023-04-09T14:11:02.185Z,8.23
2023-04-09T14:13:29.108Z,8.18
2023-04-09T14:15:55.580Z,7.97
2023-04-09T14:18:21.985Z,7.57
2023-04-09T14:20:48.401Z,7.57
2023-04-09T14:23:14.850Z,7.90
2023-04-09T14:25:41.358Z,7.80
2023-04-09T14:28:07.718Z,7.40
2023-04-09T14:30:34.073Z,7.07
2023-04-09T14:33:01.591Z,7.47
2023-04-09T14:35:28.063Z,7.93
2023-04-09T14:37:54.986Z,8.30
2023-04-09T14:40:21.369Z,8.02
2023-04-09T14:42:48.275Z,9.10
2023-04-09T14:45:14.638Z,7.88
2023-04-09T14:47:41.207Z,8.43
2023-04-09T14:50:08.216Z,8.40
2023-04-09T14:52:34.538Z,7.93
2023-04-09T14:55:00.947Z,7.72
2023-04-09T14:57:27.286Z,7.55
2023-04-09T14:59:53.685Z,8.32
2023-04-09T15:02:20.190Z,8.05
2023-04-09T15:04:46.711Z,8.05
2023-04-09T15:07:13.227Z,7.82
2023-04-09T15:09:39.654Z,8.52
2023-04-09T15:12:06.095Z,8.38
2023-04-09T15:14:33.450Z,8.00
2023-04-09T15:16:59.840Z,7.88
2023-04-09T15:19:26.482Z,7.75
2023-04-09T15:21:52.872Z,7.63
2023-04-09T15:24:19.219Z,8.30
2023-04-09T15:26:45.581Z,7.82
2023-04-09T15:29:11.967Z,8.38
2023-04-09T15:31:40.838Z,7.75
2023-04-09T15:34:08.042Z,8.38
2023-04-09T15:36:34.371Z,7.95
2023-04-09T15:39:05.220Z,8.30
2023-04-09T15:41:32.286Z,7.95
2023-04-09T15:43:58.661Z,8.60
2023-04-09T15:46:25.209Z,8.57
2023-04-09T15:48:51.795Z,8.40
2023-04-09T15:51:18.382Z,8.50
2023-04-09T15:53:44.721Z,8.57
2023-04-09T15:56:15.227Z,9.07
2023-04-09T15:58:43.023Z,8.93
2023-04-09T16:01:09.898Z,8.70
2023-04-09T16:03:42.261Z,8.60
2023-04-09T16:06:13.162Z,8.55
2023-04-09T16:08:40.109Z,7.90
2023-04-09T16:11:08.048Z,9.38
2023-04-09T16:13:34.384Z,8.63
2023-04-09T16:16:01.121Z,9.88
2023-04-09T16:18:27.736Z,8.88
2023-04-09T16:20:55.348Z,9.55
2023-04-09T16:23:22.810Z,9.90
2023-04-09T16:25:49.319Z,10.00
2023-04-09T16:28:16.835Z,9.98
2023-04-09T16:30:44.124Z,9.15
2023-04-09T16:33:10.734Z,8.98
2023-04-09T16:35:39.462Z,8.95
2023-04-09T16:38:06.880Z,9.48
2023-04-09T16:40:33.478Z,9.50
2023-04-09T16:43:03.081Z,9.15
2023-04-09T16:45:29.657Z,8.95
2023-04-09T16:47:56.212Z,7.97
2023-04-09T16:50:29.270Z,8.10
2023-04-09T16:52:55.677Z,7.53
2023-04-09T16:55:22.302Z,8.10
2023-04-09T16:57:48.674Z,7.70
2023-04-09T17:00:17.361Z,8.15
2023-04-09T17:02:45.733Z,7.72
2023-04-09T17:05:12.411Z,7.93
2023-04-09T17:07:38.792Z,7.97
2023-04-09T17:10:05.897Z,7.90
2023-04-09T17:12:32.390Z,8.88
2023-04-09T17:14:58.786Z,8.15
2023-04-09T17:17:25.156Z,8.95
2023-04-09T17:19:52.005Z,9.63
2023-04-09T17:22:18.454Z,9.68
2023-04-09T17:24:44.867Z,10.23
2023-04-09T17:27:11.397Z,12.02
2023-04-09T17:29:37.749Z,13.70
2023-04-09T17:32:04.174Z,13.43
2023-04-09T17:34:30.615Z,13.32
2023-04-09T17:36:59.974Z,12.55
2023-04-09T17:39:29.164Z,10.45
2023-04-09T17:41:58.019Z,10.10
2023-04-09T17:44:25.367Z,9.48
2023-04-09T17:46:52.035Z,9.13
2023-04-09T17:49:18.448Z,8.95
2023-04-09T17:51:44.817Z,8.77
2023-04-09T17:54:11.613Z,9.60
2023-04-09T17:56:38.909Z,9.05
2023-04-09T17:59:06.367Z,9.55
2023-04-09T18:01:32.872Z,9.32
2023-04-09T18:04:00.719Z,9.85
2023-04-09T18:06:27.733Z,9.70
2023-04-09T18:08:54.291Z,9.57
2023-04-09T18:11:21.031Z,9.30
2023-04-09T18:13:47.377Z,9.48
2023-04-09T18:16:13.897Z,9.40
2023-04-09T18:18:40.523Z,9.75
2023-04-09T18:21:07.089Z,9.25
2023-04-09T18:23:33.740Z,9.35
2023-04-09T18:26:00.221Z,9.30
2023-04-09T18:28:26.557Z,9.23
2023-04-09T18:30:54.057Z,10.00
2023-04-09T18:33:21.047Z,9.50
2023-04-09T18:35:47.642Z,11.45
2023-04-09T18:38:14.001Z,9.07
2023-04-09T18:40:44.229Z,9.93
2023-04-09T18:43:13.717Z,10.02
2023-04-09T18:45:40.033Z,11.13
2023-04-09T18:48:07.942Z,10.80
2023-04-09T18:50:34.828Z,11.10
2023-04-09T18:53:03.197Z,10.70
2023-04-09T18:55:29.591Z,11.70
2023-04-09T18:57:55.932Z,11.02
2023-04-09T19:00:22.256Z,11.15
2023-04-09T19:02:49.720Z,11.60
2023-04-09T19:05:16.405Z,11.27
2023-04-09T19:07:43.373Z,11.77
2023-04-09T19:10:10.271Z,11.75
2023-04-09T19:12:37.713Z,9.70
2023-04-09T19:15:04.796Z,9.48
2023-04-09T19:17:31.869Z,10.43
2023-04-09T19:19:58.230Z,10.40
2023-04-09T19:22:24.791Z,9.95
2023-04-09T19:24:51.405Z,9.75
2023-04-09T19:27:18.527Z,11.93
2023-04-09T19:29:46.157Z,9.88
2023-04-09T19:32:13.291Z,10.27
2023-04-09T19:34:39.732Z,10.40
2023-04-09T19:37:06.155Z,10.40
2023-04-09T19:39:32.576Z,10.05
2023-04-09T19:41:58.958Z,11.75
2023-04-09T19:44:25.385Z,11.55
2023-04-09T19:46:51.747Z,10.98
2023-04-09T19:49:18.131Z,10.50
2023-04-09T19:51:44.506Z,10.30
2023-04-09T19:54:10.950Z,10.55
2023-04-09T19:56:38.217Z,10.30
2023-04-09T19:59:04.742Z,10.18
2023-04-09T20:01:31.379Z,10.00
2023-04-09T20:03:58.014Z,9.95
2023-04-09T20:06:24.499Z,9.35
2023-04-09T20:08:51.231Z,9.38
2023-04-09T20:11:18.906Z,9.75
2023-04-09T20:13:47.384Z,10.40
2023-04-09T20:16:14.817Z,9.52
2023-04-09T20:18:41.301Z,9.90
2023-04-09T20:21:08.588Z,9.00
2023-04-09T20:23:34.968Z,9.73
2023-04-09T20:26:02.598Z,10.15
2023-04-09T20:28:29.559Z,9.95
2023-04-09T20:30:55.958Z,8.90
2023-04-09T20:33:22.402Z,10.38
2023-04-09T20:35:50.290Z,10.80
2023-04-09T20:38:20.321Z,11.48
2023-04-09T20:40:46.728Z,10.88
2023-04-09T20:43:13.232Z,10.20
2023-04-09T20:45:39.672Z,9.15
2023-04-09T20:48:06.832Z,10.38
2023-04-09T20:50:33.257Z,10.15
2023-04-09T20:52:59.656Z,10.65
2023-04-09T20:55:26.158Z,9.65
2023-04-09T20:57:55.377Z,10.02
2023-04-09T21:00:22.639Z,10.77
2023-04-09T21:02:49.152Z,10.13
2023-04-09T21:05:22.550Z,12.20
2023-04-09T21:07:51.079Z,10.02
2023-04-09T21:10:17.563Z,13.82
2023-04-09T21:12:44.024Z,11.43
2023-04-09T21:15:11.056Z,10.75
2023-04-09T21:17:37.638Z,12.00
2023-04-09T21:20:04.534Z,13.25
2023-04-09T21:22:31.325Z,13.98
2023-04-09T21:24:57.766Z,13.85
2023-04-09T21:27:24.207Z,13.20
2023-04-09T21:29:50.623Z,15.95
2023-04-09T21:32:17.425Z,10.98
2023-04-09T21:34:43.867Z,9.80
2023-04-09T21:37:10.273Z,11.98
2023-04-09T21:39:36.663Z,12.35
2023-04-09T21:42:03.036Z,9.93
2023-04-09T21:44:29.436Z,10.48
2023-04-09T21:46:56.313Z,10.82
2023-04-09T21:49:22.707Z,11.18
2023-04-09T21:51:49.034Z,13.57
2023-04-09T21:54:15.595Z,11.25
2023-04-09T21:56:41.934Z,10.70
2023-04-09T21:59:08.300Z,10.52
2023-04-09T22:01:35.375Z,11.10
2023-04-09T22:04:02.242Z,11.40
2023-04-09T22:06:29.494Z,11.07
2023-04-09T22:08:57.561Z,11.57
2023-04-09T22:11:29.406Z,11.27
2023-04-09T22:13:56.742Z,11.40
2023-04-09T22:16:24.115Z,10.00
2023-04-09T22:18:51.787Z,10.23
2023-04-09T22:21:18.367Z,10.75
2023-04-09T22:23:44.804Z,10.32
2023-04-09T22:26:11.183Z,11.05
2023-04-09T22:28:38.318Z,11.02
2023-04-09T22:31:05.171Z,11.55
2023-04-09T22:33:31.720Z,11.07
2023-04-09T22:35:59.212Z,11.77
2023-04-09T22:38:26.043Z,11.60
2023-04-09T22:40:52.497Z,11.95
2023-04-09T22:43:19.476Z,12.20
2023-04-09T22:45:54.174Z,11.75
2023-04-09T22:48:21.773Z,12.00
2023-04-09T22:50:49.341Z,11.98
2023-04-09T22:53:18.892Z,11.52
2023-04-09T22:55:47.426Z,11.60
2023-04-09T22:58:13.889Z,11.25
2023-04-09T23:00:40.388Z,11.20
2023-04-09T23:03:06.984Z,11.05
2023-04-09T23:05:33.687Z,11.10
2023-04-09T23:08:00.186Z,11.10
2023-04-09T23:10:26.572Z,11.32
2023-04-09T23:12:52.905Z,12.32
2023-04-09T23:15:19.626Z,12.23
2023-04-09T23:17:46.073Z,12.52
2023-04-09T23:20:14.684Z,13.07
2023-04-09T23:22:41.944Z,13.07
2023-04-09T23:25:08.738Z,14.02
2023-04-09T23:27:35.140Z,13.32
2023-04-09T23:30:01.484Z,13.43
2023-04-09T23:32:27.958Z,13.77
2023-04-09T23:34:54.390Z,14.38
2023-04-09T23:37:20.740Z,14.02
2023-04-09T23:39:48.164Z,13.65
2023-04-09T23:42:14.614Z,13.70
2023-04-09T23:44:41.303Z,13.80
2023-04-09T23:47:07.673Z,13.55
2023-04-09T23:49:34.092Z,13.63
2023-04-09T23:52:00.473Z,13.70
2023-04-09T23:54:26.974Z,13.68
2023-04-09T23:56:53.417Z,13.30
2023-04-09T23:59:19.800Z,13.70
